Time;durP1;ratioP1;P1;durP2;ratioP2;P2;SDS_P1;SDS_P2;PMS_P1;PMS_P2;Temp;Humidity;BMP_temperature;BMP_pressure;BME280_temperature;BME280_humidity;BME280_pressure;Samples;Min_cycle;Max_cycle;Signal;HPM_P1;HPM_P2
2022/07/20 00:00:39;;;;;;;5.60;1.80;;;;;;;22.82;38.95;100183.06;4493408;31;32307;-79
2022/07/20 00:03:27;;;;;;;4.03;1.95;;;;;;;22.58;39.26;100178.00;4481735;31;33422;-79
2022/07/20 00:06:14;;;;;;;4.90;1.60;;;;;;;22.73;38.99;100176.97;4481922;31;34554;-79
2022/07/20 00:12:07;;;;;;;3.35;1.42;;;;;;;22.56;40.19;100185.94;4495233;31;34140;-78
2022/07/20 00:14:54;;;;;;;4.05;1.70;;;;;;;22.46;40.92;100181.81;4491212;31;34736;-79
2022/07/20 00:17:40;;;;;;;7.00;1.80;;;;;;;22.31;42.21;100178.00;4494557;31;35122;-79
2022/07/20 00:20:26;;;;;;;5.68;1.83;;;;;;;22.26;42.11;100175.56;4495917;31;34696;-79
2022/07/20 00:23:13;;;;;;;4.37;2.10;;;;;;;21.87;43.48;100181.31;4495813;31;33676;-79
2022/07/20 00:26:00;;;;;;;3.42;1.65;;;;;;;21.89;42.54;100184.56;4494070;31;34776;-80
2022/07/20 00:28:50;;;;;;;7.68;2.00;;;;;;;21.85;42.26;100185.66;4495906;31;34424;-79
2022/07/20 00:31:38;;;;;;;7.30;1.90;;;;;;;21.53;42.71;100177.56;4483951;31;34566;-79
2022/07/20 00:34:25;;;;;;;4.90;1.77;;;;;;;21.61;42.79;100189.66;4495478;31;36936;-79
2022/07/20 00:37:12;;;;;;;3.55;1.23;;;;;;;20.80;43.34;100179.34;4484220;31;34596;-79
2022/07/20 00:39:59;;;;;;;5.22;1.70;;;;;;;21.25;42.89;100175.06;4495359;31;36765;-79
2022/07/20 00:42:47;;;;;;;4.95;2.28;;;;;;;21.88;41.82;100185.72;4496447;31;34855;-79
2022/07/20 00:45:33;;;;;;;4.40;1.77;;;;;;;22.13;42.15;100182.50;4481659;31;34788;-79
2022/07/20 00:48:20;;;;;;;4.32;2.35;;;;;;;22.03;42.88;100189.56;4482285;31;34182;-79
2022/07/20 00:51:07;;;;;;;4.85;1.98;;;;;;;21.92;43.53;100192.16;4495888;31;35943;-79
2022/07/20 00:53:54;;;;;;;4.82;1.80;;;;;;;21.91;42.48;100190.53;4494931;31;34645;-79
2022/07/20 00:56:41;;;;;;;4.90;1.70;;;;;;;21.64;42.68;100178.56;4495973;31;33784;-79
2022/07/20 00:59:28;;;;;;;4.03;2.42;;;;;;;21.67;42.27;100186.19;4482774;31;35206;-79
2022/07/20 01:02:15;;;;;;;3.37;1.60;;;;;;;21.71;43.18;100189.03;4496044;31;35015;-79
2022/07/20 01:05:01;;;;;;;4.82;1.98;;;;;;;21.61;41.76;100187.69;4493404;31;34546;-79
2022/07/20 01:07:49;;;;;;;4.37;1.55;;;;;;;21.02;44.49;100184.19;4494297;31;33668;-80
2022/07/20 01:10:35;;;;;;;2.58;1.52;;;;;;;20.66;44.89;100188.22;4493808;31;34366;-79
2022/07/20 01:13:22;;;;;;;5.43;1.70;;;;;;;20.89;44.54;100189.13;4483871;31;35082;-79
2022/07/20 01:16:09;;;;;;;5.93;1.42;;;;;;;19.73;46.23;100184.13;4482860;31;35400;-79
2022/07/20 01:18:55;;;;;;;3.92;1.77;;;;;;;21.02;43.31;100186.97;4483973;31;35010;-79
2022/07/20 01:21:41;;;;;;;6.65;2.45;;;;;;;21.42;42.66;100185.75;4482974;31;34605;-79
2022/07/20 01:24:27;;;;;;;4.80;1.98;;;;;;;21.36;42.88;100190.00;4482664;31;34994;-79
2022/07/20 01:27:14;;;;;;;4.57;1.70;;;;;;;21.01;43.50;100187.34;4482385;31;34646;-79
2022/07/20 01:30:00;;;;;;;4.32;2.00;;;;;;;20.62;44.70;100185.38;4492333;31;33743;-79
2022/07/20 01:32:48;;;;;;;5.15;1.77;;;;;;;20.79;44.67;100197.25;4483438;31;35533;-79
2022/07/20 01:35:35;;;;;;;4.10;1.55;;;;;;;20.85;43.87;100193.78;4494310;31;35949;-79
2022/07/20 01:38:22;;;;;;;3.78;1.50;;;;;;;21.14;43.39;100193.56;4494057;31;34811;-80
2022/07/20 01:41:08;;;;;;;4.47;1.50;;;;;;;20.93;43.55;100193.94;4485107;31;34320;-80
2022/07/20 01:43:56;;;;;;;3.42;1.52;;;;;;;21.44;41.82;100188.97;4483079;31;34122;-79
2022/07/20 01:46:43;;;;;;;4.47;1.50;;;;;;;21.45;41.49;100193.34;4496249;31;34830;-80
2022/07/20 01:49:29;;;;;;;7.10;1.65;;;;;;;21.26;41.72;100187.78;4494372;31;34697;-80
2022/07/20 01:52:17;;;;;;;5.43;1.50;;;;;;;21.19;42.43;100196.03;4495617;31;35053;-79
2022/07/20 01:55:04;;;;;;;4.87;1.50;;;;;;;21.08;42.69;100196.63;4494818;31;34750;-79
2022/07/20 01:57:51;;;;;;;4.45;1.55;;;;;;;21.44;41.80;100191.75;4471418;31;34528;-79
2022/07/20 02:00:37;;;;;;;3.25;1.50;;;;;;;21.51;41.61;100189.09;4482700;31;34538;-79
2022/07/20 02:03:24;;;;;;;3.15;1.67;;;;;;;21.35;41.87;100199.53;4494119;31;34134;-80
2022/07/20 02:06:11;;;;;;;4.78;1.40;;;;;;;21.31;42.57;100198.66;4494425;31;34408;-79
2022/07/20 02:08:57;;;;;;;4.28;1.40;;;;;;;21.02;43.56;100200.09;4494587;31;35902;-79
2022/07/20 02:11:44;;;;;;;6.40;1.35;;;;;;;21.01;42.19;100202.06;4494587;31;35525;-80
2022/07/20 02:14:30;;;;;;;3.45;1.40;;;;;;;20.98;43.10;100194.47;4494867;31;34121;-80
2022/07/20 02:17:16;;;;;;;4.28;1.60;;;;;;;21.12;43.01;100200.31;4484131;31;34793;-79
2022/07/20 02:20:04;;;;;;;3.92;1.40;;;;;;;21.14;43.43;100201.91;4494279;31;35646;-79
2022/07/20 02:22:50;;;;;;;6.57;1.90;;;;;;;20.91;43.91;100199.87;4493480;31;34161;-79
2022/07/20 02:25:37;;;;;;;4.00;1.85;;;;;;;21.03;44.83;100199.75;4492999;31;34225;-79
2022/07/20 02:28:24;;;;;;;4.03;1.67;;;;;;;20.76;45.58;100195.19;4468283;31;34670;-79
2022/07/20 02:31:10;;;;;;;6.53;1.70;;;;;;;;;;4467459;32;34880;-79
2022/07/20 02:33:57;;;;;;;4.70;1.70;;;;;;;20.66;45.61;100191.84;4479253;31;35250;-79
2022/07/20 02:36:43;;;;;;;3.92;1.73;;;;;;;20.69;44.27;100190.28;4479641;31;34876;-79
2022/07/20 02:39:30;;;;;;;3.30;1.75;;;;;;;20.65;44.91;100192.19;4476183;31;34735;-79
2022/07/20 02:42:16;;;;;;;6.78;1.98;;;;;;;20.60;45.86;100193.28;4479629;31;34927;-79
2022/07/20 02:45:03;;;;;;;5.12;1.90;;;;;;;20.50;45.75;100188.25;4476906;31;34668;-79
2022/07/20 02:47:49;;;;;;;5.35;1.80;;;;;;;20.62;45.06;100188.16;4466608;32;34985;-79
2022/07/20 02:50:38;;;;;;;6.57;1.92;;;;;;;20.52;45.33;100191.50;4476659;31;34307;-79
2022/07/20 02:53:24;;;;;;;5.40;1.55;;;;;;;20.52;44.82;100185.94;4477202;31;35896;-79
2022/07/20 02:56:11;;;;;;;6.62;2.12;;;;;;;20.57;45.11;100190.41;4480261;31;34446;-79
2022/07/20 02:58:57;;;;;;;4.82;2.20;;;;;;;20.35;46.51;100189.94;4465596;31;33514;-79
2022/07/20 03:01:45;;;;;;;2.55;1.60;;;;;;;20.34;47.34;100202.22;4466054;31;34531;-79
2022/07/20 03:04:31;;;;;;;2.60;1.77;;;;;;;20.64;46.22;100193.37;4478002;31;35921;-79
2022/07/20 03:07:18;;;;;;;4.87;1.87;;;;;;;20.66;45.91;100202.97;4478765;31;34185;-79
2022/07/20 03:10:05;;;;;;;4.57;1.95;;;;;;;20.41;46.63;100190.47;4478861;31;35146;-79
2022/07/20 03:12:53;;;;;;;5.00;1.70;;;;;;;20.07;47.60;100198.44;4478337;31;35607;-79
2022/07/20 03:15:40;;;;;;;3.15;1.62;;;;;;;20.39;46.76;100203.91;4463899;32;33655;-80
2022/07/20 03:18:28;;;;;;;7.53;1.83;;;;;;;20.19;47.12;100200.28;4479341;31;34582;-79
2022/07/20 03:21:14;;;;;;;6.12;1.80;;;;;;;20.76;45.82;100203.56;4465166;31;34108;-80
2022/07/20 03:24:01;;;;;;;4.12;1.60;;;;;;;20.51;46.55;100198.22;4477052;31;34245;-79
2022/07/20 03:26:48;;;;;;;3.40;1.55;;;;;;;20.22;47.09;100211.50;4478775;31;35017;-80
2022/07/20 03:29:36;;;;;;;5.72;1.87;;;;;;;20.53;46.39;100209.84;4481984;31;34824;-79
2022/07/20 03:32:22;;;;;;;3.45;1.77;;;;;;;20.40;46.84;100211.88;4479364;31;34300;-79
2022/07/20 03:35:09;;;;;;;6.07;1.80;;;;;;;20.18;47.68;100212.59;4492434;31;35658;-79
2022/07/20 03:37:56;;;;;;;5.40;1.77;;;;;;;20.53;47.50;100226.53;4476850;31;34588;-80
2022/07/20 03:40:42;;;;;;;5.37;2.50;;;;;;;20.70;47.02;100216.97;4494504;31;34513;-80
2022/07/20 03:43:29;;;;;;;5.40;1.95;;;;;;;20.66;48.00;100219.69;4494344;31;34144;-80
2022/07/20 03:46:17;;;;;;;6.22;2.40;;;;;;;20.49;48.20;100222.00;4492040;31;34198;-80
2022/07/20 03:49:04;;;;;;;8.95;2.12;;;;;;;20.29;47.88;100215.59;4483277;31;35754;-79
2022/07/20 03:51:51;;;;;;;6.87;2.03;;;;;;;19.96;49.17;100222.41;4495636;31;33574;-80
2022/07/20 03:54:38;;;;;;;6.65;2.12;;;;;;;19.60;49.92;100232.59;4483638;31;33055;-79
2022/07/20 03:57:25;;;;;;;3.85;1.70;;;;;;;20.25;48.74;100231.44;4483119;31;34675;-80
2022/07/20 04:00:14;;;;;;;6.65;1.80;;;;;;;20.34;47.66;100229.25;4495378;31;35057;-79
2022/07/20 04:03:03;;;;;;;4.57;1.70;;;;;;;20.37;47.89;100231.31;4494781;31;34303;-79
2022/07/20 04:05:50;;;;;;;6.65;1.87;;;;;;;20.57;46.88;100238.53;4492015;31;33927;-79
2022/07/20 04:08:37;;;;;;;5.43;1.92;;;;;;;20.62;47.00;100234.69;4482265;31;33604;-79
2022/07/20 04:11:24;;;;;;;4.45;2.10;;;;;;;20.62;47.09;100227.13;4494078;31;35101;-80
2022/07/20 04:14:10;;;;;;;7.32;2.00;;;;;;;20.24;48.20;100235.38;4482443;31;34196;-79
2022/07/20 04:16:57;;;;;;;6.05;2.10;;;;;;;19.97;49.31;100237.91;4491916;31;34103;-79
2022/07/20 04:19:45;;;;;;;7.07;1.90;;;;;;;20.02;48.28;100242.41;4495783;31;34956;-79
2022/07/20 04:22:34;;;;;;;5.15;1.75;;;;;;;19.48;49.60;100243.78;4494436;31;34449;-79
2022/07/20 04:25:22;;;;;;;4.97;2.10;;;;;;;18.57;51.96;100239.59;4494920;31;34968;-79
2022/07/20 04:28:09;;;;;;;4.55;1.90;;;;;;;19.86;50.58;100237.63;4492593;31;34291;-79
2022/07/20 04:30:56;;;;;;;6.35;2.00;;;;;;;20.62;48.34;100245.81;4493807;31;34274;-79
2022/07/20 04:33:46;;;;;;;7.03;1.92;;;;;;;20.86;47.90;100234.41;4490539;31;35028;-79
2022/07/20 04:36:32;;;;;;;5.75;2.10;;;;;;;21.00;46.90;100249.78;4495019;31;34562;-79
2022/07/20 04:39:19;;;;;;;5.45;1.87;;;;;;;21.08;46.83;100241.22;4489841;31;34325;-79
2022/07/20 04:42:06;;;;;;;6.72;1.90;;;;;;;20.80;47.79;100251.75;4493811;31;34324;-79
2022/07/20 04:44:53;;;;;;;6.18;1.75;;;;;;;20.64;48.47;100238.72;4494602;31;34617;-79
2022/07/20 04:47:40;;;;;;;4.03;1.65;;;;;;;20.84;47.90;100252.66;4480734;31;34598;-79
2022/07/20 04:50:29;;;;;;;7.25;2.50;;;;;;;21.06;47.22;100248.31;4472094;31;34637;-79
2022/07/20 04:53:16;;;;;;;4.82;2.00;;;;;;;21.32;46.42;100242.09;4494419;31;34739;-79
2022/07/20 04:56:04;;;;;;;7.30;2.00;;;;;;;21.58;46.13;100251.75;4492928;31;34668;-79
2022/07/20 04:58:54;;;;;;;4.00;1.90;;;;;;;21.86;45.64;100243.87;4492661;31;34694;-79
2022/07/20 05:01:46;;;;;;;3.97;1.83;;;;;;;21.83;46.44;100247.41;4493591;31;33753;-79
2022/07/20 05:04:33;;;;;;;6.90;2.10;;;;;;;21.52;46.95;100243.69;4485850;31;34752;-79
2022/07/20 05:07:20;;;;;;;4.97;1.92;;;;;;;21.89;45.70;100245.13;4489896;31;35047;-77
2022/07/20 05:10:07;;;;;;;7.55;1.80;;;;;;;22.04;45.50;100251.75;4492552;31;34661;-76
2022/07/20 05:12:55;;;;;;;5.05;2.20;;;;;;;22.51;44.89;100251.28;4496653;31;34365;-77
2022/07/20 05:15:42;;;;;;;7.90;2.25;;;;;;;22.73;45.69;100254.37;4495466;31;34644;-79
2022/07/20 05:18:29;;;;;;;5.12;2.10;;;;;;;22.72;44.28;100253.59;4495859;31;36004;-78
2022/07/20 05:21:16;;;;;;;7.53;2.22;;;;;;;22.60;43.47;100248.25;4483231;31;34791;-79
2022/07/20 05:24:03;;;;;;;5.43;2.15;;;;;;;22.15;44.48;100252.72;4493156;31;33325;-79
2022/07/20 05:26:52;;;;;;;3.35;1.70;;;;;;;21.79;45.01;100257.69;4494208;31;34401;-77
2022/07/20 05:29:39;;;;;;;4.62;1.80;;;;;;;22.84;42.32;100250.53;4494350;31;34641;-78
2022/07/20 05:32:25;;;;;;;6.25;1.80;;;;;;;23.33;43.57;100260.75;4494988;31;34587;-78
2022/07/20 05:35:13;;;;;;;5.50;1.87;;;;;;;23.66;40.81;100255.50;4496137;31;34070;-78
2022/07/20 05:40:55;;;;;;;5.85;1.95;;;;;;;23.74;42.98;100258.00;4491440;31;36675;-78
2022/07/20 05:43:44;;;;;;;5.45;1.67;;;;;;;24.07;40.45;100252.69;4483454;31;35500;-78
2022/07/20 05:46:32;;;;;;;3.10;1.67;;;;;;;24.02;41.37;100251.88;4495717;31;34131;-79
2022/07/20 05:49:19;;;;;;;3.53;1.75;;;;;;;23.84;41.17;100256.50;4496105;31;35518;-79
2022/07/20 05:52:08;;;;;;;3.62;1.75;;;;;;;24.17;41.14;100258.38;4493498;31;36107;-80
2022/07/20 05:54:55;;;;;;;6.03;2.00;;;;;;;23.65;40.01;100256.66;4493515;31;34665;-80
2022/07/20 05:57:42;;;;;;;4.80;1.73;;;;;;;24.07;39.80;100252.69;4492550;31;34735;-79
2022/07/20 06:00:31;;;;;;;4.25;2.00;;;;;;;24.68;38.62;100253.94;4493778;31;34300;-78
2022/07/20 06:03:18;;;;;;;7.03;2.28;;;;;;;24.66;37.98;100257.13;4483360;31;36621;-77
2022/07/20 06:06:06;;;;;;;6.50;2.22;;;;;;;25.28;37.83;100249.81;4492592;31;34699;-78
2022/07/20 06:09:01;;;;;;;4.45;2.00;;;;;;;25.38;38.76;100251.03;4492277;31;34196;-79
2022/07/20 06:12:08;;;;;;;6.35;2.37;;;;;;;25.73;38.28;100255.91;4490633;31;34287;-80
2022/07/20 06:15:00;;;;;;;8.80;2.35;;;;;;;25.82;37.18;100252.72;4482863;31;35912;-81
2022/07/20 06:17:47;;;;;;;4.80;2.20;;;;;;;25.63;38.10;100257.50;4492405;31;34840;-80
2022/07/20 06:20:35;;;;;;;9.48;2.85;;;;;;;25.78;37.01;100261.09;4489272;31;34427;-79
2022/07/20 06:23:26;;;;;;;6.87;2.58;;;;;;;26.04;36.51;100259.94;4492934;31;34599;-78
2022/07/20 06:26:16;;;;;;;9.60;2.50;;;;;;;26.19;35.96;100255.16;4492001;31;34575;-77
2022/07/20 06:29:03;;;;;;;5.90;2.28;;;;;;;26.42;35.71;100255.50;4492798;31;34406;-77
2022/07/20 06:31:51;;;;;;;10.63;2.90;;;;;;;26.03;37.60;100270.38;4492935;31;33842;-77
2022/07/20 06:35:00;;;;;;;8.48;2.60;;;;;;;26.15;36.70;100271.19;4492958;31;34528;-76
2022/07/20 06:37:50;;;;;;;4.93;2.30;;;;;;;26.73;35.31;100266.31;4482257;31;34983;-77
2022/07/20 06:40:39;;;;;;;9.27;2.45;;;;;;;26.78;34.97;100260.25;4492096;31;34288;-76
2022/07/20 06:43:32;;;;;;;7.45;2.65;;;;;;;26.76;35.46;100257.87;4494707;31;33713;-76
2022/07/20 06:46:21;;;;;;;9.45;2.72;;;;;;;27.26;33.61;100252.03;4482974;31;34683;-77
2022/07/20 06:49:11;;;;;;;16.67;2.72;;;;;;;27.44;34.58;100254.78;4481392;31;35133;-75
2022/07/20 06:51:59;;;;;;;5.32;2.50;;;;;;;27.53;34.91;100257.13;4492429;31;33415;-76
2022/07/20 06:54:50;;;;;;;8.40;2.20;;;;;;;27.29;34.54;100259.66;4482157;31;34709;-77
2022/07/20 06:57:40;;;;;;;8.25;2.70;;;;;;;27.87;33.24;100254.50;4484174;31;34190;-78
2022/07/20 07:00:28;;;;;;;11.80;2.80;;;;;;;28.20;33.04;100260.66;4493465;31;34980;-77
2022/07/20 07:03:17;;;;;;;9.15;2.85;;;;;;;28.32;33.01;100251.69;4492096;31;35175;-78
2022/07/20 07:06:12;;;;;;;6.78;2.80;;;;;;;28.35;32.23;100244.44;4489666;31;34132;-77
2022/07/20 07:09:07;;;;;;;5.95;2.17;;;;;;;27.80;31.67;100244.06;4491089;31;37526;-77
2022/07/20 07:11:54;;;;;;;8.90;2.40;;;;;;;28.40;33.71;100253.19;4492300;31;34764;-78
2022/07/20 07:14:43;;;;;;;6.95;2.53;;;;;;;28.61;31.51;100246.59;4493690;31;34470;-77
2022/07/20 07:17:31;;;;;;;4.47;2.47;;;;;;;29.02;31.07;100254.16;4493754;31;33798;-77
2022/07/20 07:20:21;;;;;;;6.12;2.10;;;;;;;29.28;31.46;100251.81;4480600;31;35508;-77
2022/07/20 07:23:14;;;;;;;9.52;2.47;;;;;;;28.96;30.43;100252.22;4491364;31;34905;-77
2022/07/20 07:26:06;;;;;;;9.10;2.58;;;;;;;29.07;30.07;100250.09;4489549;31;36048;-77
2022/07/20 07:28:59;;;;;;;8.80;2.20;;;;;;;29.34;30.32;100252.94;4484789;31;35088;-77
2022/07/20 07:31:49;;;;;;;8.63;2.35;;;;;;;29.47;29.76;100251.16;4491848;31;34626;-79
2022/07/20 07:34:38;;;;;;;6.45;2.00;;;;;;;29.96;29.14;100248.78;4488536;31;34642;-79
2022/07/20 07:37:26;;;;;;;6.70;2.20;;;;;;;30.19;28.72;100250.81;4477568;31;34217;-78
2022/07/20 07:40:15;;;;;;;5.72;2.00;;;;;;;30.16;27.84;100250.87;4493132;31;34723;-78
2022/07/20 07:43:03;;;;;;;8.27;2.00;;;;;;;30.28;27.53;100253.13;4494013;31;34875;-78
2022/07/20 07:45:50;;;;;;;4.90;2.03;;;;;;;30.31;28.30;100245.81;4490508;31;35065;-78
2022/07/20 07:48:39;;;;;;;5.97;2.10;;;;;;;30.32;27.61;100244.59;4494270;31;34566;-78
2022/07/20 07:51:42;;;;;;;6.72;2.15;;;;;;;30.82;27.31;100241.59;4490222;31;33665;-78
2022/07/20 07:54:31;;;;;;;5.22;2.00;;;;;;;31.18;27.86;100235.19;4478411;31;34455;-78
2022/07/20 07:57:19;;;;;;;10.27;2.20;;;;;;;31.03;26.65;100240.37;4489534;31;34901;-78
2022/07/20 08:00:08;;;;;;;4.97;1.95;;;;;;;30.36;26.05;100237.63;4490462;31;34302;-79
2022/07/20 08:02:57;;;;;;;5.57;2.30;;;;;;;31.10;24.89;100230.94;4482613;31;32880;-80
2022/07/20 08:05:45;;;;;;;10.05;2.50;;;;;;;31.38;25.58;100232.34;4489914;31;37778;-79
2022/07/20 08:08:34;;;;;;;6.87;2.15;;;;;;;31.42;24.85;100237.94;4489929;31;35899;-79
2022/07/20 08:11:25;;;;;;;6.87;2.60;;;;;;;31.57;26.13;100228.66;4478102;31;35450;-79
2022/07/20 08:14:14;;;;;;;10.27;2.80;;;;;;;32.02;28.96;100236.50;4493265;31;33954;-78
2022/07/20 08:17:04;;;;;;;49.50;5.93;;;;;;;31.89;27.29;100231.97;4493075;31;34294;-78
2022/07/20 08:19:55;;;;;;;38.55;4.30;;;;;;;31.45;27.22;100228.56;4492087;31;34972;-78
2022/07/20 08:22:46;;;;;;;9.10;2.40;;;;;;;32.14;28.64;100229.31;4489472;31;34684;-78
2022/07/20 08:25:35;;;;;;;16.35;3.22;;;;;;;32.26;29.17;100237.06;4488498;31;33811;-79
2022/07/20 08:28:23;;;;;;;20.30;3.58;;;;;;;31.83;26.92;100225.25;4477704;31;34424;-79
2022/07/20 08:31:13;;;;;;;12.80;2.70;;;;;;;32.70;28.93;100228.22;4489774;31;34599;-78
2022/07/20 08:34:00;;;;;;;11.80;2.83;;;;;;;32.55;26.74;100227.81;4466035;31;34856;-78
2022/07/20 08:36:49;;;;;;;11.25;3.65;;;;;;;31.69;26.24;100227.16;4494215;31;33811;-78
2022/07/20 08:39:36;;;;;;;8.27;2.62;;;;;;;32.25;25.67;100226.19;4493375;31;34227;-78
2022/07/20 08:42:33;;;;;;;9.25;2.55;;;;;;;32.46;27.46;100233.34;4490318;31;34653;-79
2022/07/20 08:45:26;;;;;;;6.65;2.67;;;;;;;32.98;25.83;100231.47;4478286;31;35776;-78
2022/07/20 08:48:18;;;;;;;10.63;2.47;;;;;;;33.11;25.58;100224.59;4492112;31;35193;-78
2022/07/20 08:51:10;;;;;;;7.72;2.50;;;;;;;32.91;24.83;100221.91;4490035;31;34750;-78
2022/07/20 08:53:59;;;;;;;9.45;2.47;;;;;;;32.76;24.79;100229.28;4493023;31;34663;-78
2022/07/20 08:56:47;;;;;;;31.90;3.50;;;;;;;33.55;25.63;100222.03;4490546;31;35480;-78
2022/07/20 08:59:46;;;;;;;6.78;2.10;;;;;;;32.42;23.43;100227.75;4481040;31;34142;-78
2022/07/20 09:02:50;;;;;;;6.78;2.70;;;;;;;32.62;24.23;100221.16;4493443;31;33820;-78
2022/07/20 09:05:39;;;;;;;12.05;2.75;;;;;;;33.76;22.79;100220.53;4488262;31;35023;-78
2022/07/20 09:08:26;;;;;;;6.62;2.00;;;;;;;34.02;22.53;100211.97;4477928;31;35628;-78
2022/07/20 09:11:23;;;;;;;11.30;2.50;;;;;;;33.77;22.32;100216.44;4494476;31;33171;-78
2022/07/20 09:14:13;;;;;;;9.63;2.20;;;;;;;34.33;21.94;100208.50;4494548;31;34325;-78
2022/07/20 09:17:17;;;;;;;7.53;1.90;;;;;;;34.32;21.01;100207.66;4481879;31;35554;-78
2022/07/20 09:20:11;;;;;;;8.40;2.17;;;;;;;34.51;21.16;100205.00;4481749;31;34525;-80
2022/07/20 09:23:03;;;;;;;3.97;2.22;;;;;;;33.57;20.95;100205.31;4481529;31;35682;-80
2022/07/20 09:26:07;;;;;;;8.70;2.50;;;;;;;34.19;21.80;100204.09;4488179;31;33321;-79
2022/07/20 09:29:16;;;;;;;12.37;2.30;;;;;;;34.49;20.57;100197.69;4481620;31;35886;-78
2022/07/20 09:32:03;;;;;;;5.07;2.30;;;;;;;34.95;21.38;100197.22;4489530;31;34621;-78
2022/07/20 09:35:01;;;;;;;5.25;1.83;;;;;;;34.06;19.59;100191.97;4496228;31;34366;-77
2022/07/20 09:37:49;;;;;;;5.85;2.03;;;;;;;34.39;20.61;100183.88;4479141;31;34557;-77
2022/07/20 09:40:43;;;;;;;9.35;1.98;;;;;;;34.56;19.42;100182.47;4484653;31;34984;-77
2022/07/20 09:43:37;;;;;;;5.95;1.80;;;;;;;35.09;20.35;100182.50;4486502;31;34213;-77
2022/07/20 09:46:28;;;;;;;8.18;1.80;;;;;;;35.24;20.20;100182.72;4497856;31;34052;-77
2022/07/20 09:49:18;;;;;;;7.82;2.17;;;;;;;35.52;18.98;100177.09;4497659;31;36084;-77
2022/07/20 09:52:06;;;;;;;8.80;2.05;;;;;;;34.96;19.51;100169.56;4495386;31;34871;-76
2022/07/20 09:55:20;;;;;;;;;;;;;;;33.97;19.20;100176.37;4496287;31;35459;-77
2022/07/20 09:58:13;;;;;;;13.18;2.53;;;;;;;34.17;20.09;100173.25;4486868;31;33961;-77
2022/07/20 10:01:00;;;;;;;3.60;1.90;;;;;;;34.66;20.07;100171.91;4491011;31;35556;-79
2022/07/20 10:03:55;;;;;;;6.25;2.10;;;;;;;35.36;20.49;100167.56;4479751;31;35190;-78
2022/07/20 10:06:45;;;;;;;6.47;2.08;;;;;;;35.44;19.80;100165.22;4482852;31;34432;-78
2022/07/20 10:09:36;;;;;;;3.60;1.55;;;;;;;36.04;19.83;100166.78;4491224;31;35160;-77
2022/07/20 10:12:30;;;;;;;4.95;1.87;;;;;;;35.00;18.13;100164.53;4462345;31;34145;-77
2022/07/20 10:15:38;;;;;;;3.12;1.65;;;;;;;34.69;18.76;100176.69;4493696;31;35043;-78
2022/07/20 10:18:25;;;;;;;5.05;1.90;;;;;;;34.54;18.58;100165.03;4490270;31;34822;-78
2022/07/20 10:21:35;;;;;;;7.00;1.90;;;;;;;35.43;17.45;100157.12;4492587;31;34134;-77
2022/07/20 10:24:30;;;;;;;5.15;1.90;;;;;;;35.39;17.54;100159.34;4494918;31;33560;-77
2022/07/20 10:27:27;;;;;;;3.03;1.92;;;;;;;34.81;19.16;100153.06;4496193;31;35946;-77
2022/07/20 10:30:19;;;;;;;3.53;1.58;;;;;;;34.85;18.66;100153.69;4496134;31;34664;-77
2022/07/20 10:33:14;;;;;;;5.57;1.67;;;;;;;34.90;18.65;100153.09;4496664;31;34589;-78
2022/07/20 10:39:45;;;;;;;3.30;1.92;;;;;;;34.52;18.15;100143.97;4494596;31;34496;-78
2022/07/20 10:42:39;;;;;;;4.65;1.73;;;;;;;35.58;18.02;100143.91;4493566;31;35394;-78
2022/07/20 10:45:35;;;;;;;5.70;1.83;;;;;;;34.82;18.53;100145.31;4491845;31;33781;-79
2022/07/20 10:48:26;;;;;;;8.50;2.40;;;;;;;35.89;18.47;100140.97;4495308;31;34227;-79
2022/07/20 10:51:33;;;;;;;11.05;3.60;;;;;;;35.23;18.16;100140.44;4493834;31;34811;-79
2022/07/20 10:54:37;;;;;;;6.90;2.15;;;;;;;36.09;18.05;100134.81;4493585;31;35521;-79
2022/07/20 10:57:24;;;;;;;4.35;2.10;;;;;;;34.71;18.66;100142.88;4495378;31;34165;-78
2022/07/20 11:00:13;;;;;;;6.15;2.15;;;;;;;35.84;18.15;100124.47;4484380;31;34417;-78
2022/07/20 11:03:16;;;;;;;3.90;1.85;;;;;;;34.18;18.87;100122.88;4496129;31;33933;-79
2022/07/20 11:06:16;;;;;;;3.65;1.62;;;;;;;35.37;18.10;100126.41;4473763;31;34717;-78
2022/07/20 11:09:05;;;;;;;7.75;1.80;;;;;;;36.19;16.91;100115.63;4492438;31;34312;-78
2022/07/20 11:11:52;;;;;;;1.90;1.60;;;;;;;35.44;17.38;100113.16;4497613;31;36049;-80
2022/07/20 11:14:52;;;;;;;8.55;1.83;;;;;;;36.41;17.18;100112.59;4497647;31;35515;-79
2022/07/20 11:17:42;;;;;;;7.57;2.00;;;;;;;36.15;18.05;100103.59;4496377;31;35293;-79
2022/07/20 11:20:29;;;;;;;2.58;1.70;;;;;;;36.74;16.37;100109.03;4491352;31;34264;-77
2022/07/20 11:23:17;;;;;;;2.95;1.80;;;;;;;36.10;17.29;100099.31;4495654;31;35648;-77
2022/07/20 11:26:09;;;;;;;5.18;1.80;;;;;;;34.57;18.50;100110.06;4492440;31;37061;-78
2022/07/20 11:28:59;;;;;;;4.30;1.58;;;;;;;33.69;18.55;100109.16;4485415;31;289869;-78
2022/07/20 11:31:49;;;;;;;3.62;1.90;;;;;;;35.15;17.83;100102.91;4494779;31;33718;-78
2022/07/20 11:37:51;;;;;;;4.80;1.83;;;;;;;35.77;17.71;100085.66;4491464;31;35090;-78
2022/07/20 11:40:39;;;;;;;5.97;2.10;;;;;;;36.48;15.91;100093.06;4492274;31;34245;-78
2022/07/20 11:43:27;;;;;;;4.62;2.00;;;;;;;35.53;17.25;100081.81;4472854;31;34210;-79
2022/07/20 11:46:22;;;;;;;4.75;1.92;;;;;;;35.66;17.89;100084.53;4496176;31;35207;-78
2022/07/20 11:52:19;;;;;;;4.15;1.92;;;;;;;36.98;18.04;100084.22;4492626;31;35466;-79
2022/07/20 11:55:13;;;;;;;7.12;2.30;;;;;;;37.63;17.05;100081.00;4491793;31;33147;-78
2022/07/20 11:58:01;;;;;;;7.32;2.17;;;;;;;36.42;16.20;100082.78;4494435;31;34715;-79
2022/07/20 12:00:50;;;;;;;4.05;2.10;;;;;;;36.24;16.93;100075.06;4479304;31;35910;-77
2022/07/20 12:03:40;;;;;;;6.68;2.10;;;;;;;36.15;16.67;100081.56;4495407;31;34478;-79
2022/07/20 12:06:31;;;;;;;4.93;1.90;;;;;;;36.39;16.49;100078.81;4483804;31;35386;-80
2022/07/20 12:12:45;;;;;;;2.65;1.80;;;;;;;36.48;16.78;100069.44;4496474;31;34997;-80
2022/07/20 12:15:37;;;;;;;9.10;2.10;;;;;;;36.73;16.98;100068.28;4496446;31;34270;-79
2022/07/20 12:18:36;;;;;;;5.43;2.20;;;;;;;36.60;16.63;100076.25;4493725;31;34632;-79
2022/07/20 12:21:27;;;;;;;5.37;1.83;;;;;;;35.84;16.35;100067.47;4485604;31;36292;-78
2022/07/20 12:24:18;;;;;;;7.12;1.98;;;;;;;36.09;16.55;100059.84;4497349;31;34988;-79
2022/07/20 12:27:17;;;;;;;7.65;1.75;;;;;;;37.27;15.99;100055.03;4486366;31;34136;-79
2022/07/20 12:30:20;;;;;;;4.03;2.20;;;;;;;38.31;15.72;100052.47;4496409;31;34070;-79
2022/07/20 12:33:15;;;;;;;5.85;2.35;;;;;;;38.48;15.31;100052.75;4496487;31;34653;-79
2022/07/20 12:36:12;;;;;;;4.45;2.25;;;;;;;38.23;15.45;100048.41;4497172;31;36214;-79
2022/07/20 12:39:04;;;;;;;4.05;1.98;;;;;;;37.83;14.37;100048.91;4497430;31;34582;-79
2022/07/20 12:42:11;;;;;;;3.65;2.08;;;;;;;37.30;14.72;100044.69;4485681;31;34096;-79
2022/07/20 12:45:21;;;;;;;4.60;2.53;;;;;;;37.76;14.21;100033.72;4497933;31;35507;-80
2022/07/20 12:48:09;;;;;;;2.83;1.70;;;;;;;38.29;14.46;100040.72;4484359;31;34587;-79
2022/07/20 12:54:01;;;;;;;7.45;2.10;;;;;;;35.70;16.61;100028.97;4497343;31;34985;-79
2022/07/20 12:56:57;;;;;;;3.78;1.87;;;;;;;37.25;15.55;100023.28;4496605;31;34646;-79
2022/07/20 12:59:46;;;;;;;4.12;2.10;;;;;;;36.82;16.22;100022.56;4497623;31;34605;-80
2022/07/20 13:02:40;;;;;;;3.53;2.15;;;;;;;37.08;15.13;100019.28;4497426;31;35583;-80
2022/07/20 13:05:29;;;;;;;6.57;2.20;;;;;;;37.48;15.58;100016.00;4485704;31;33924;-79
2022/07/20 13:11:29;;;;;;;20.12;3.25;;;;;;;39.20;15.32;100020.84;4497080;31;35024;-78
2022/07/20 13:14:30;;;;;;;4.12;1.73;;;;;;;38.27;14.84;100016.75;4496737;31;34245;-79
2022/07/20 13:17:19;;;;;;;3.30;1.85;;;;;;;37.95;14.59;100010.72;4485492;31;34154;-79
2022/07/20 13:20:08;;;;;;;9.57;2.47;;;;;;;38.68;14.48;100000.50;4496317;31;34623;-78
2022/07/20 13:22:57;;;;;;;4.22;1.83;;;;;;;38.10;14.81;100008.66;4492066;31;35047;-78
2022/07/20 13:25:46;;;;;;;3.80;1.80;;;;;;;38.05;14.35;100009.31;4492815;31;34324;-78
2022/07/20 13:28:35;;;;;;;4.37;2.03;;;;;;;37.99;14.40;100002.72;4497024;31;34148;-79
2022/07/20 13:31:25;;;;;;;4.95;2.20;;;;;;;39.24;13.35;100009.94;4480920;32;34581;-79
2022/07/20 13:34:33;;;;;;;4.50;1.98;;;;;;;39.11;13.54;99995.19;4480208;31;34884;-79